createdAt,value
2017-10-01T00:00:58.245Z,17.53
2017-10-01T00:03:25.888Z,19.10
2017-10-01T00:05:53.526Z,14.00
2017-10-01T00:08:21.024Z,20.50
2017-10-01T00:10:48.555Z,11.30
2017-10-01T00:13:16.060Z,19.63
2017-10-01T00:15:44.332Z,27.73
2017-10-01T00:18:12.045Z,18.87
2017-10-01T00:20:39.550Z,22.13
2017-10-01T00:23:07.069Z,23.40
2017-10-01T00:25:34.748Z,17.43
2017-10-01T00:28:02.275Z,18.40
2017-10-01T00:30:29.783Z,20.77
2017-10-01T00:32:58.032Z,22.20
2017-10-01T00:35:25.794Z,16.53
2017-10-01T00:37:53.312Z,18.77
2017-10-01T00:40:20.820Z,9.67
2017-10-01T00:42:48.345Z,15.13
2017-10-01T00:45:15.859Z,16.57
2017-10-01T00:47:43.396Z,13.63
2017-10-01T00:50:10.899Z,12.90
2017-10-01T00:52:38.603Z,11.23
2017-10-01T00:55:06.363Z,17.17
2017-10-01T00:57:33.980Z,11.60
2017-10-01T01:00:01.584Z,7.87
2017-10-01T01:02:29.083Z,9.80
2017-10-01T01:04:56.818Z,12.73
2017-10-01T01:07:24.571Z,8.40
2017-10-01T01:09:52.080Z,8.00
2017-10-01T01:12:19.797Z,8.70
2017-10-01T01:14:47.304Z,3.33
2017-10-01T01:17:14.806Z,6.33
2017-10-01T01:19:42.312Z,6.70
2017-10-01T01:22:10.579Z,3.03
2017-10-01T01:24:38.096Z,3.10
2017-10-01T01:27:05.759Z,4.90
2017-10-01T01:29:33.519Z,8.50
2017-10-01T01:32:01.019Z,3.37
2017-10-01T01:34:28.529Z,10.40
2017-10-01T01:36:56.031Z,9.23
2017-10-01T01:39:24.308Z,3.60
2017-10-01T01:41:51.820Z,12.17
2017-10-01T01:44:19.483Z,7.70
2017-10-01T01:46:47.191Z,9.67
2017-10-01T01:49:14.704Z,9.00
2017-10-01T01:51:42.208Z,8.60
2017-10-01T01:54:09.725Z,16.90
2017-10-01T01:56:37.226Z,9.07
2017-10-01T01:59:05.500Z,6.77
2017-10-01T02:01:33.215Z,6.77
2017-10-01T02:04:01.597Z,12.50
2017-10-01T02:06:29.133Z,15.50
2017-10-01T02:08:56.624Z,7.70
2017-10-01T02:11:24.152Z,10.13
2017-10-01T02:13:51.656Z,12.33
2017-10-01T02:16:19.180Z,10.00
2017-10-01T02:18:46.683Z,11.77
2017-10-01T02:21:14.199Z,10.10
2017-10-01T02:23:41.859Z,12.07
2017-10-01T02:26:09.632Z,12.40
2017-10-01T02:28:37.396Z,16.13
2017-10-01T02:31:05.152Z,14.20
2017-10-01T02:33:32.916Z,9.63
2017-10-01T02:36:00.488Z,13.40
2017-10-01T02:38:29.056Z,18.73
2017-10-01T02:40:56.820Z,13.93
2017-10-01T02:43:24.339Z,14.70
2017-10-01T02:45:51.847Z,11.63
2017-10-01T02:48:19.499Z,14.73
2017-10-01T02:50:47.260Z,14.00
2017-10-01T02:53:14.788Z,11.50
2017-10-01T02:55:42.487Z,31.63
2017-10-01T02:58:10.249Z,24.23
2017-10-01T03:00:37.756Z,13.17
2017-10-01T03:03:05.272Z,15.40
2017-10-01T03:05:32.797Z,17.27
2017-10-01T03:08:00.380Z,14.87
2017-10-01T03:10:27.897Z,14.27
2017-10-01T03:12:55.392Z,18.63
2017-10-01T03:15:23.060Z,24.43
2017-10-01T03:17:50.559Z,21.37
2017-10-01T03:20:18.074Z,14.80
2017-10-01T03:22:45.588Z,12.47
2017-10-01T03:25:13.861Z,18.50
2017-10-01T03:27:41.376Z,18.13
2017-10-01T03:30:08.889Z,19.67
2017-10-01T03:32:36.399Z,19.37
2017-10-01T03:35:03.936Z,20.63
2017-10-01T03:37:31.455Z,14.80
2017-10-01T03:39:59.155Z,17.67
2017-10-01T03:42:26.664Z,16.30
2017-10-01T03:44:54.171Z,19.33
2017-10-01T03:47:21.840Z,18.50
2017-10-01T03:49:49.348Z,16.30
2017-10-01T03:52:16.860Z,16.33
2017-10-01T03:54:44.373Z,15.90
2017-10-01T03:57:11.876Z,20.80
2017-10-01T03:59:39.431Z,15.67
2017-10-01T04:02:06.947Z,17.00
2017-10-01T04:04:34.640Z,16.43
2017-10-01T04:07:02.412Z,14.90
2017-10-01T04:09:29.941Z,14.77
2017-10-01T04:11:57.632Z,14.90
2017-10-01T04:14:25.131Z,17.40
2017-10-01T04:16:52.708Z,32.70
2017-10-01T04:19:20.309Z,13.67
2017-10-01T04:21:47.823Z,20.57
2017-10-01T04:24:15.871Z,19.73
2017-10-01T04:26:43.559Z,28.63
2017-10-01T04:29:11.071Z,17.60
2017-10-01T04:31:38.580Z,18.53
2017-10-01T04:34:06.095Z,19.90
2017-10-01T04:36:33.723Z,21.43
2017-10-01T04:39:01.231Z,24.73
2017-10-01T04:41:28.772Z,17.83
2017-10-01T04:43:56.296Z,26.90
2017-10-01T04:46:23.833Z,23.00
2017-10-01T04:48:51.347Z,25.47
2017-10-01T04:51:18.860Z,26.83
2017-10-01T04:53:46.372Z,19.73
2017-10-01T04:56:14.649Z,32.07
2017-10-01T04:58:42.348Z,35.73
2017-10-01T05:01:10.284Z,30.07
2017-10-01T05:03:37.912Z,22.77
2017-10-01T05:06:05.664Z,21.30
2017-10-01T05:08:33.174Z,21.97
2017-10-01T05:11:00.891Z,19.97
2017-10-01T05:13:28.907Z,38.60
2017-10-01T05:15:56.632Z,21.57
2017-10-01T05:18:24.181Z,26.23
2017-10-01T05:20:51.697Z,30.53
2017-10-01T05:23:19.204Z,29.50
2017-10-01T05:25:46.857Z,26.70
2017-10-01T05:28:14.616Z,23.20
2017-10-01T05:30:42.360Z,31.60
2017-10-01T05:33:09.871Z,23.03
2017-10-01T05:35:37.608Z,23.50
2017-10-01T05:38:05.113Z,29.10
2017-10-01T05:40:32.819Z,30.40
2017-10-01T05:43:00.579Z,32.57
2017-10-01T05:45:28.106Z,31.90
2017-10-01T05:47:55.612Z,26.43
2017-10-01T05:50:23.236Z,20.10
2017-10-01T05:52:50.746Z,21.40
2017-10-01T05:55:18.480Z,36.27
2017-10-01T05:57:46.006Z,31.23
2017-10-01T06:00:13.521Z,25.17
2017-10-01T06:02:41.156Z,29.57
2017-10-01T06:05:08.805Z,28.53
2017-10-01T06:07:36.371Z,30.53
2017-10-01T06:10:03.884Z,31.77
2017-10-01T06:12:31.404Z,25.90
2017-10-01T06:14:59.022Z,35.30
2017-10-01T06:17:26.533Z,32.83
2017-10-01T06:19:54.145Z,25.40
2017-10-01T06:22:21.652Z,27.30
2017-10-01T06:24:50.108Z,32.60
2017-10-01T06:27:17.875Z,36.77
2017-10-01T06:29:45.667Z,39.63
2017-10-01T06:32:13.368Z,40.67
2017-10-01T06:34:40.885Z,48.23
2017-10-01T06:37:08.614Z,32.93
2017-10-01T06:39:36.126Z,36.47
2017-10-01T06:42:03.651Z,32.03
2017-10-01T06:44:31.272Z,37.03
2017-10-01T06:46:59.060Z,32.00
2017-10-01T06:49:26.571Z,34.93
2017-10-01T06:51:54.075Z,35.90
2017-10-01T06:54:21.594Z,29.50
2017-10-01T06:56:49.100Z,37.70
2017-10-01T06:59:16.640Z,40.33
2017-10-01T07:01:44.200Z,35.83
2017-10-01T07:04:11.716Z,34.20
2017-10-01T07:06:42.874Z,35.53
2017-10-01T07:09:10.463Z,33.73
2017-10-01T07:11:37.970Z,34.73
2017-10-01T07:14:06.408Z,41.90
2017-10-01T07:16:33.932Z,32.00
2017-10-01T07:19:01.525Z,39.60
2017-10-01T07:21:29.159Z,39.43
2017-10-01T07:23:56.704Z,39.93
2017-10-01T07:26:24.481Z,29.93
2017-10-01T07:28:51.986Z,51.67
2017-10-01T07:31:19.491Z,33.40
2017-10-01T07:33:47.203Z,34.53
2017-10-01T07:36:14.944Z,42.20
2017-10-01T07:38:42.451Z,32.33
2017-10-01T07:41:09.969Z,49.03
2017-10-01T07:43:37.484Z,38.63
2017-10-01T07:46:05.080Z,31.33
2017-10-01T07:48:33.101Z,40.83
2017-10-01T07:51:00.612Z,31.07
2017-10-01T07:53:28.128Z,36.73
2017-10-01T07:55:55.633Z,38.73
2017-10-01T07:58:23.160Z,36.43
2017-10-01T08:00:50.663Z,46.07
2017-10-01T08:03:18.196Z,37.23
2017-10-01T08:05:45.972Z,38.00
2017-10-01T08:08:15.118Z,35.60
2017-10-01T08:10:42.728Z,40.53
2017-10-01T08:13:10.242Z,30.50
2017-10-01T08:15:37.936Z,27.63
2017-10-01T08:18:05.468Z,35.67
2017-10-01T08:20:32.983Z,43.13
2017-10-01T08:23:01.287Z,30.40
2017-10-01T08:25:28.968Z,36.97
2017-10-01T08:27:56.755Z,34.83
2017-10-01T08:30:24.274Z,49.93
2017-10-01T08:32:51.972Z,30.10
2017-10-01T08:35:19.494Z,35.43
2017-10-01T08:37:47.002Z,32.40
2017-10-01T08:40:14.521Z,28.97
2017-10-01T08:42:42.027Z,28.30
2017-10-01T08:45:09.559Z,33.40
2017-10-01T08:47:37.063Z,38.80
2017-10-01T08:50:04.783Z,42.97
2017-10-01T08:52:32.547Z,26.83
2017-10-01T08:55:00.063Z,31.63
2017-10-01T08:57:27.621Z,34.83
2017-10-01T08:59:55.508Z,31.77
2017-10-01T09:02:23.088Z,36.47
2017-10-01T09:04:50.765Z,35.43
2017-10-01T09:07:18.516Z,22.10
2017-10-01T09:09:46.049Z,35.23
2017-10-01T09:12:13.746Z,43.60
2017-10-01T09:14:41.502Z,26.77
2017-10-01T09:17:09.014Z,23.73
2017-10-01T09:19:36.513Z,23.93
2017-10-01T09:22:04.119Z,30.73
2017-10-01T09:24:32.047Z,33.00
2017-10-01T09:26:59.601Z,19.80
2017-10-01T09:29:27.161Z,27.33
2017-10-01T09:31:55.576Z,23.70
2017-10-01T09:34:23.308Z,35.03
2017-10-01T09:36:51.067Z,35.77
2017-10-01T09:39:18.567Z,19.40
2017-10-01T09:41:46.090Z,24.90
2017-10-01T09:44:13.589Z,27.33
2017-10-01T09:46:41.189Z,28.93
2017-10-01T09:49:08.679Z,31.07
2017-10-01T09:51:36.194Z,25.17
2017-10-01T09:54:03.695Z,27.43
2017-10-01T09:56:31.229Z,23.03
2017-10-01T09:58:58.757Z,21.43
2017-10-01T10:01:26.276Z,14.80
2017-10-01T10:03:53.829Z,21.37
2017-10-01T10:06:21.780Z,29.23
2017-10-01T10:08:49.278Z,18.97
2017-10-01T10:11:16.995Z,17.97
2017-10-01T10:13:45.100Z,23.93
2017-10-01T10:16:13.776Z,18.57
2017-10-01T10:18:41.513Z,16.87
2017-10-01T10:21:09.016Z,21.93
2017-10-01T10:23:36.735Z,19.33
2017-10-01T10:26:04.472Z,11.83
2017-10-01T10:28:31.976Z,9.60
2017-10-01T10:30:59.542Z,19.43
2017-10-01T10:33:27.171Z,17.30
2017-10-01T10:35:54.671Z,20.70
2017-10-01T10:38:22.392Z,21.23
2017-10-01T10:40:50.108Z,22.90
2017-10-01T10:43:17.640Z,28.07
2017-10-01T10:45:45.376Z,20.83
2017-10-01T10:48:12.882Z,18.87
2017-10-01T10:50:40.591Z,18.07
2017-10-01T10:53:08.100Z,15.50
2017-10-01T10:55:35.720Z,14.53
2017-10-01T10:58:03.231Z,13.43
2017-10-01T11:00:30.748Z,20.23
2017-10-01T11:02:58.255Z,23.47
2017-10-01T11:05:25.933Z,15.30
2017-10-01T11:07:53.547Z,16.00
2017-10-01T11:10:22.084Z,14.37
2017-10-01T11:12:49.591Z,14.77
2017-10-01T11:15:17.307Z,16.47
2017-10-01T11:17:44.817Z,13.03
2017-10-01T11:20:12.502Z,16.23
2017-10-01T11:22:40.009Z,26.03
2017-10-01T11:25:07.743Z,16.33
2017-10-01T11:27:35.282Z,12.97
2017-10-01T11:30:02.973Z,19.90
2017-10-01T11:32:30.520Z,14.87
2017-10-01T11:34:58.044Z,17.90
2017-10-01T11:37:25.622Z,21.87
2017-10-01T11:39:53.128Z,12.47
2017-10-01T11:42:20.863Z,12.33
2017-10-01T11:44:49.171Z,11.80
2017-10-01T11:47:16.685Z,4.67
2017-10-01T11:49:44.195Z,15.97
2017-10-01T11:52:11.932Z,17.90
2017-10-01T11:54:39.440Z,21.73
2017-10-01T11:57:06.952Z,13.40
2017-10-01T11:59:34.596Z,10.37
2017-10-01T12:02:02.135Z,21.17
2017-10-01T12:04:29.640Z,13.87
2017-10-01T12:06:57.277Z,14.30
2017-10-01T12:09:25.035Z,21.50
2017-10-01T12:11:52.564Z,18.27
2017-10-01T12:14:20.259Z,11.00
2017-10-01T12:16:48.024Z,10.07
2017-10-01T12:19:15.532Z,15.30
2017-10-01T12:21:43.216Z,17.43
2017-10-01T12:24:10.724Z,18.60
2017-10-01T12:26:38.236Z,13.07
2017-10-01T12:29:05.880Z,10.40
2017-10-01T12:31:33.675Z,11.40
2017-10-01T12:34:01.200Z,11.70
2017-10-01T12:36:28.712Z,21.03
2017-10-01T12:38:56.242Z,10.13
2017-10-01T12:41:23.741Z,7.77
2017-10-01T12:43:51.256Z,10.07
2017-10-01T12:46:18.761Z,17.40
2017-10-01T12:48:46.795Z,10.60
2017-10-01T12:51:14.819Z,11.27
2017-10-01T12:53:42.332Z,15.50
2017-10-01T12:56:09.842Z,14.00
2017-10-01T12:58:37.351Z,12.90
2017-10-01T13:01:04.988Z,16.63
2017-10-01T13:03:32.762Z,10.40
2017-10-01T13:06:00.540Z,17.70
2017-10-01T13:08:28.117Z,8.70
2017-10-01T13:10:56.846Z,13.60
2017-10-01T13:13:24.641Z,10.30
2017-10-01T13:15:52.203Z,17.57
2017-10-01T13:18:19.733Z,7.87
2017-10-01T13:20:47.387Z,7.70
2017-10-01T13:23:14.880Z,9.67
2017-10-01T13:25:42.396Z,11.17
2017-10-01T13:28:09.903Z,9.17
2017-10-01T13:30:37.584Z,11.40
2017-10-01T13:33:05.312Z,11.03
2017-10-01T13:35:33.071Z,15.30
2017-10-01T13:38:00.584Z,10.37
2017-10-01T13:40:28.104Z,15.10
2017-10-01T13:42:55.755Z,13.13
2017-10-01T13:45:24.082Z,10.83
2017-10-01T13:47:51.586Z,6.70
2017-10-01T13:50:19.104Z,11.87
2017-10-01T13:52:46.806Z,9.57
2017-10-01T13:55:14.567Z,15.33
2017-10-01T13:57:42.341Z,14.13
2017-10-01T14:00:10.103Z,10.93
2017-10-01T14:02:37.636Z,6.50
2017-10-01T14:05:11.085Z,9.67
2017-10-01T14:07:38.612Z,12.83
2017-10-01T14:10:06.169Z,7.50
2017-10-01T14:12:33.673Z,13.20
2017-10-01T14:15:02.359Z,6.47
2017-10-01T14:17:30.629Z,13.93
2017-10-01T14:19:58.900Z,9.47
2017-10-01T14:22:26.416Z,10.40
2017-10-01T14:24:54.820Z,7.20
2017-10-01T14:27:22.336Z,7.50
2017-10-01T14:29:49.832Z,11.57
2017-10-01T14:32:17.987Z,5.90
2017-10-01T14:34:45.476Z,13.77
2017-10-01T14:37:13.005Z,10.10
2017-10-01T14:39:40.767Z,5.57
2017-10-01T14:42:08.287Z,10.70
2017-10-01T14:44:35.969Z,6.77
2017-10-01T14:47:03.751Z,9.40
2017-10-01T14:49:31.515Z,10.13
2017-10-01T14:51:59.258Z,5.83
2017-10-01T14:54:26.768Z,11.60
2017-10-01T14:56:54.276Z,9.27
2017-10-01T14:59:21.780Z,7.33
2017-10-01T15:01:49.311Z,10.43
2017-10-01T15:04:16.846Z,12.27
2017-10-01T15:06:44.351Z,7.90
2017-10-01T15:09:11.875Z,12.50
2017-10-01T15:11:39.521Z,9.90
2017-10-01T15:14:07.314Z,9.87
2017-10-01T15:16:34.808Z,8.17
2017-10-01T15:19:02.431Z,14.83
2017-10-01T15:21:29.988Z,19.00
2017-10-01T15:23:57.499Z,14.10
2017-10-01T15:26:25.003Z,23.83
2017-10-01T15:28:52.637Z,23.70
2017-10-01T15:31:20.730Z,11.17
2017-10-01T15:33:48.236Z,13.67
2017-10-01T15:36:15.923Z,15.73
2017-10-01T15:38:43.715Z,13.87
2017-10-01T15:41:11.225Z,17.60
2017-10-01T15:43:38.912Z,20.53
2017-10-01T15:46:07.121Z,22.63
2017-10-01T15:48:34.661Z,11.57
2017-10-01T15:51:02.233Z,13.97
2017-10-01T15:53:29.731Z,14.13
2017-10-01T15:55:57.452Z,7.17
2017-10-01T15:58:25.208Z,14.90
2017-10-01T16:00:52.719Z,21.00
2017-10-01T16:03:20.391Z,13.17
2017-10-01T16:05:47.927Z,14.93
2017-10-01T16:08:17.170Z,16.63
2017-10-01T16:10:44.966Z,19.73
2017-10-01T16:13:14.793Z,20.70
2017-10-01T16:15:42.312Z,11.40
2017-10-01T16:18:10.083Z,10.17
2017-10-01T16:20:37.595Z,11.73
2017-10-01T16:23:05.335Z,15.30
2017-10-01T16:25:33.115Z,19.53
2017-10-01T16:28:00.620Z,11.00
2017-10-01T16:30:28.283Z,10.60
2017-10-01T16:32:56.067Z,14.00
2017-10-01T16:35:23.816Z,12.10
2017-10-01T16:37:51.324Z,10.20
2017-10-01T16:40:19.039Z,26.67
2017-10-01T16:42:46.941Z,14.10
2017-10-01T16:45:14.969Z,18.83
2017-10-01T16:47:42.459Z,10.40
2017-10-01T16:50:09.967Z,13.33
2017-10-01T16:52:37.552Z,10.83
2017-10-01T16:55:05.061Z,14.13
2017-10-01T16:57:32.770Z,25.03
2017-10-01T17:00:00.608Z,11.23
2017-10-01T17:02:28.314Z,21.13
2017-10-01T17:04:55.812Z,11.03
2017-10-01T17:07:23.491Z,8.77
2017-10-01T17:09:51.408Z,12.77
2017-10-01T17:12:20.555Z,17.37
2017-10-01T17:14:48.177Z,15.10
2017-10-01T17:17:16.467Z,18.57
2017-10-01T17:19:44.357Z,21.50
2017-10-01T17:22:11.851Z,11.00
2017-10-01T17:24:39.377Z,13.97
2017-10-01T17:27:06.950Z,23.40
2017-10-01T17:29:35.104Z,15.17
2017-10-01T17:32:03.128Z,11.23
2017-10-01T17:34:31.589Z,8.70
2017-10-01T17:36:59.131Z,7.63
2017-10-01T17:39:26.772Z,15.77
2017-10-01T17:41:54.355Z,14.90
2017-10-01T17:44:22.119Z,18.73
2017-10-01T17:46:49.681Z,12.00
2017-10-01T17:49:17.200Z,15.23
2017-10-01T17:51:44.792Z,11.23
2017-10-01T17:54:12.559Z,13.73
2017-10-01T17:56:40.090Z,13.53
2017-10-01T17:59:09.363Z,13.60
2017-10-01T18:01:37.081Z,25.30
2017-10-01T18:04:04.585Z,16.77
2017-10-01T18:06:32.149Z,16.67
2017-10-01T18:09:00.858Z,29.23
2017-10-01T18:11:29.232Z,35.57
2017-10-01T18:13:56.743Z,49.00
2017-10-01T18:16:25.029Z,93.57
2017-10-01T18:18:53.305Z,18.83
2017-10-01T18:21:21.048Z,16.33
2017-10-01T18:23:48.800Z,18.23
2017-10-01T18:26:16.576Z,9.17
2017-10-01T18:28:44.457Z,22.27
2017-10-01T18:31:12.743Z,23.30
2017-10-01T18:33:40.259Z,14.30
2017-10-01T18:36:08.040Z,7.37
2017-10-01T18:38:35.553Z,17.07
2017-10-01T18:41:03.069Z,25.47
2017-10-01T18:43:30.573Z,15.93
2017-10-01T18:45:58.275Z,14.37
2017-10-01T18:48:25.779Z,19.33
2017-10-01T18:50:53.583Z,16.27
2017-10-01T18:53:21.348Z,13.10
2017-10-01T18:55:49.113Z,18.83
2017-10-01T18:58:16.868Z,11.50
2017-10-01T19:00:45.543Z,24.27
2017-10-01T19:03:13.929Z,13.43
2017-10-01T19:05:41.554Z,23.60
2017-10-01T19:08:09.071Z,19.37
2017-10-01T19:10:36.587Z,11.93
2017-10-01T19:13:04.254Z,15.40
2017-10-01T19:15:31.763Z,13.80
2017-10-01T19:18:00.982Z,19.33
2017-10-01T19:20:28.545Z,17.83
2017-10-01T19:22:56.960Z,17.00
2017-10-01T19:25:24.450Z,16.07
2017-10-01T19:27:52.369Z,12.80
2017-10-01T19:30:20.133Z,14.13
2017-10-01T19:32:47.746Z,14.77
2017-10-01T19:35:15.485Z,12.70
2017-10-01T19:37:43.658Z,20.27
2017-10-01T19:40:11.409Z,15.63
2017-10-01T19:42:39.565Z,16.97
2017-10-01T19:45:07.198Z,20.50
2017-10-01T19:47:34.900Z,17.07
2017-10-01T19:50:03.470Z,17.00
2017-10-01T19:52:31.235Z,14.67
2017-10-01T19:54:58.797Z,21.80
2017-10-01T19:57:26.633Z,14.37
2017-10-01T19:59:54.376Z,15.03
2017-10-01T20:02:21.880Z,11.07
2017-10-01T20:04:49.447Z,13.77
2017-10-01T20:07:16.951Z,18.63
2017-10-01T20:09:44.455Z,23.77
2017-10-01T20:12:12.258Z,19.63
2017-10-01T20:14:40.005Z,12.43
2017-10-01T20:17:07.508Z,13.80
2017-10-01T20:19:35.204Z,13.60
2017-10-01T20:22:02.824Z,12.17
2017-10-01T20:24:32.007Z,15.17
2017-10-01T20:26:59.521Z,12.77
2017-10-01T20:29:27.177Z,15.63
2017-10-01T20:31:54.686Z,17.47
2017-10-01T20:34:22.439Z,17.50
2017-10-01T20:36:49.965Z,18.90
2017-10-01T20:39:17.625Z,12.70
2017-10-01T20:41:45.148Z,22.70
2017-10-01T20:44:12.657Z,16.17
2017-10-01T20:46:40.293Z,18.33
2017-10-01T20:49:08.097Z,12.37
2017-10-01T20:51:35.852Z,15.67
2017-10-01T20:54:03.604Z,12.87
2017-10-01T20:56:31.120Z,23.73
2017-10-01T20:58:58.633Z,12.20
2017-10-01T21:01:26.213Z,13.73
2017-10-01T21:03:53.716Z,13.63
2017-10-01T21:06:21.228Z,16.20
2017-10-01T21:08:49.142Z,15.13
2017-10-01T21:11:16.752Z,18.87
2017-10-01T21:13:44.253Z,12.60
2017-10-01T21:16:11.767Z,18.90
2017-10-01T21:18:39.404Z,19.50
2017-10-01T21:21:06.918Z,11.80
2017-10-01T21:23:34.628Z,16.50
2017-10-01T21:26:02.406Z,15.10
2017-10-01T21:28:29.919Z,10.70
2017-10-01T21:30:57.426Z,14.53
2017-10-01T21:33:24.941Z,15.83
2017-10-01T21:35:52.650Z,16.50
2017-10-01T21:38:20.256Z,21.57
2017-10-01T21:40:48.801Z,14.60
2017-10-01T21:43:16.316Z,15.27
2017-10-01T21:45:43.914Z,14.97
2017-10-01T21:48:11.470Z,12.30
2017-10-01T21:50:39.113Z,18.33
2017-10-01T21:53:06.644Z,11.67
2017-10-01T21:55:34.144Z,9.87
2017-10-01T21:58:01.650Z,9.50
2017-10-01T22:00:29.176Z,17.27
2017-10-01T22:02:56.724Z,15.17
2017-10-01T22:05:24.270Z,17.13
2017-10-01T22:07:51.773Z,13.57
2017-10-01T22:10:19.368Z,11.80
2017-10-01T22:12:46.875Z,13.93
2017-10-01T22:15:15.508Z,9.77
2017-10-01T22:17:43.031Z,13.67
2017-10-01T22:20:10.536Z,12.53
2017-10-01T22:22:38.182Z,11.93
2017-10-01T22:25:05.712Z,11.73
2017-10-01T22:27:33.380Z,13.83
2017-10-01T22:30:00.887Z,12.97
2017-10-01T22:32:28.396Z,13.23
2017-10-01T22:34:56.671Z,10.73
2017-10-01T22:37:24.178Z,11.60
2017-10-01T22:39:51.712Z,11.50
2017-10-01T22:42:19.230Z,13.93
2017-10-01T22:44:46.784Z,15.33
2017-10-01T22:47:15.078Z,12.23
2017-10-01T22:49:42.667Z,12.50
2017-10-01T22:52:10.582Z,21.60
2017-10-01T22:54:38.848Z,8.63
2017-10-01T22:57:06.573Z,11.90
2017-10-01T22:59:34.094Z,19.97
2017-10-01T23:02:01.764Z,10.00
2017-10-01T23:04:29.556Z,19.07
2017-10-01T23:06:57.087Z,12.67
2017-10-01T23:09:24.747Z,13.33
2017-10-01T23:11:52.532Z,15.73
2017-10-01T23:14:20.173Z,25.77
2017-10-01T23:16:47.685Z,12.50
2017-10-01T23:19:15.215Z,19.93
2017-10-01T23:21:42.740Z,13.33
2017-10-01T23:24:10.427Z,14.87
2017-10-01T23:26:37.952Z,15.93
2017-10-01T23:29:05.520Z,22.70
2017-10-01T23:31:33.026Z,15.90
2017-10-01T23:34:01.486Z,11.17
2017-10-01T23:36:28.986Z,14.13
2017-10-01T23:38:57.295Z,11.90
2017-10-01T23:41:24.804Z,10.40
2017-10-01T23:43:52.509Z,10.03
2017-10-01T23:46:20.031Z,10.77
2017-10-01T23:48:47.532Z,16.43
2017-10-01T23:51:15.044Z,13.97
2017-10-01T23:53:43.316Z,23.43
2017-10-01T23:56:10.866Z,11.30
2017-10-01T23:58:38.519Z,13.17
